KILN/ILN METAR and TAF weather

Enter ICAO airport designator
Station Type Date Time Source
KILN METAR 2020/09/26 20:54 UTC NOAA

KILN 262054Z AUTO 21011KT 10SM BKN041 24/16 A2994 RMK AO2 SLP132 T02440161 56014 $


Station Type Date Time Source
KILN Decoded METAR 2020/09/26 20:54 UTC NOAA

WILMINGTON INDUSTRIAL AIRPORT , OH, United States (KILN) 39-26N 083-47W 332M
Sep 26, 2020 - 04:54 PM EDT / 2020.09.26 2054 UTC
Wind: from the SSW (210 degrees) at 13 MPH (11 KT):0
Visibility: 10 mile(s):0
Sky conditions: mostly cloudy
Temperature: 75.9 F (24.4 C)
Dew Point: 61.0 F (16.1 C)
Relative Humidity: 59%
Pressure (altimeter): 29.94 in. Hg (1013 hPa)
Pressure tendency: 0.04 inches (1.4 hPa) lower than three hours ago
ob: KILN 262054Z AUTO 21011KT 10SM BKN041 24/16 A2994 RMK AO2 SLP132 T02440161 56014
cycle: 21

Station Type Date Time Source
KILN TAF 2020/09/26 18:42 UTC NOAA

TAF KILN 261739Z 2618/2718 22012G18KT P6SM SCT025 BKN035
FM262200 21010KT P6SM SCT040
FM270000 20009KT P6SM FEW250
FM271100 21009KT P6SM SCT015 BKN025
TEMPO 2711/2713 BKN015
FM271600 21013G20KT P6SM SCT025 BKN035

Example: see airport list